HST6126 HEGN-LRIA
Flight info
| Callsign | HST6126 |
|---|---|
| Flight time | 3h 0m |
| Altitude | 36000 |
| Route | SOLOX1B SOLOX V603 GIDID DCT KAPIT L677 CVO A16 RASDA M855 TOMBI UA16 AYT UQ23 OSVEL UL619 MAKOL DCT LUGEB DCT GUXVA T74 ABOLO |
| Aircraft | A320/M-SDE3FGHIRWY/LB1 |
Departure
| Time | 2026-04-26 07:48 |
|---|---|
| Airport | Hurghada International Airport (HEGN) |
Arrival
| Time | 2026-04-26 10:48 |
|---|---|
| Airport | Iaşi International Airport (LRIA) |
| Time | Latitude | Longitude | Altitude | Speed | Heading |
|---|---|---|---|---|---|
| 2026-04-26 07:23 | 27.17370 | 33.80585 | 58 ft | 0 kts | 255° |
| 2026-04-26 07:38 | 27.17372 | 33.80592 | 58 ft | 4 kts | 254° |
| 2026-04-26 07:38 | 27.17380 | 33.80620 | 53 ft | 4 kts | 246° |
| 2026-04-26 07:39 | 27.17393 | 33.80646 | 50 ft | 4 kts | 219° |
| 2026-04-26 07:39 | 27.17411 | 33.80655 | 53 ft | 1 kts | 165° |
| 2026-04-26 07:43 | 27.17386 | 33.80662 | 54 ft | 9 kts | 165° |
| 2026-04-26 07:43 | 27.17320 | 33.80682 | 58 ft | 11 kts | 165° |
| 2026-04-26 07:44 | 27.17236 | 33.80708 | 54 ft | 14 kts | 165° |
| 2026-04-26 07:44 | 27.17137 | 33.80738 | 54 ft | 16 kts | 166° |
| 2026-04-26 07:44 | 27.17055 | 33.80671 | 51 ft | 18 kts | 258° |
| 2026-04-26 07:44 | 27.17003 | 33.80538 | 52 ft | 21 kts | 205° |
| 2026-04-26 07:45 | 27.16855 | 33.80567 | 49 ft | 24 kts | 164° |
| 2026-04-26 07:45 | 27.16686 | 33.80618 | 48 ft | 26 kts | 165° |
| 2026-04-26 07:45 | 27.16506 | 33.80670 | 47 ft | 28 kts | 166° |
| 2026-04-26 07:45 | 27.16313 | 33.80728 | 44 ft | 23 kts | 165° |
| 2026-04-26 07:46 | 27.16183 | 33.80763 | 40 ft | 11 kts | 176° |
| 2026-04-26 07:46 | 27.16144 | 33.80709 | 41 ft | 9 kts | 256° |
| 2026-04-26 07:46 | 27.16135 | 33.80638 | 43 ft | 9 kts | 282° |
| 2026-04-26 07:46 | 27.16180 | 33.80592 | 43 ft | 9 kts | 339° |
| 2026-04-26 07:47 | 27.16277 | 33.80565 | 42 ft | 27 kts | 345° |
| 2026-04-26 07:47 | 27.16725 | 33.80432 | 47 ft | 110 kts | 345° |
| 2026-04-26 07:47 | 27.17702 | 33.80141 | 56 ft | 177 kts | 346° |
| 2026-04-26 07:47 | 27.18990 | 33.79772 | 549 ft | 199 kts | 347° |
| 2026-04-26 07:48 | 27.20331 | 33.79385 | 1125 ft | 201 kts | 346° |
| 2026-04-26 07:48 | 27.21696 | 33.78973 | 1648 ft | 206 kts | 343° |
| 2026-04-26 07:48 | 27.23077 | 33.78472 | 2076 ft | 215 kts | 342° |
| 2026-04-26 07:48 | 27.24531 | 33.77962 | 2567 ft | 222 kts | 342° |
| 2026-04-26 07:49 | 27.26029 | 33.77452 | 3057 ft | 227 kts | 342° |
| 2026-04-26 07:49 | 27.27564 | 33.76937 | 3546 ft | 234 kts | 342° |
| 2026-04-26 07:49 | 27.29147 | 33.76413 | 4016 ft | 238 kts | 342° |
| 2026-04-26 07:50 | 27.32334 | 33.75372 | 4996 ft | 244 kts | 342° |
| 2026-04-26 07:50 | 27.33994 | 33.74880 | 5484 ft | 250 kts | 348° |
| 2026-04-26 07:50 | 27.35731 | 33.74705 | 5980 ft | 252 kts | 355° |
| 2026-04-26 07:50 | 27.37496 | 33.74601 | 6468 ft | 259 kts | 354° |
| 2026-04-26 07:51 | 27.39348 | 33.74485 | 6950 ft | 275 kts | 354° |
| 2026-04-26 07:51 | 27.41316 | 33.74358 | 7438 ft | 287 kts | 354° |
| 2026-04-26 07:51 | 27.43326 | 33.74229 | 7917 ft | 291 kts | 354° |
| 2026-04-26 07:51 | 27.45360 | 33.74100 | 8418 ft | 293 kts | 353° |
| 2026-04-26 07:52 | 27.47402 | 33.73973 | 8914 ft | 295 kts | 353° |
| 2026-04-26 07:52 | 27.49462 | 33.73845 | 9426 ft | 297 kts | 353° |
| 2026-04-26 07:52 | 27.51514 | 33.73716 | 9924 ft | 299 kts | 353° |
| 2026-04-26 07:52 | 27.53633 | 33.73582 | 10406 ft | 304 kts | 352° |
| 2026-04-26 07:53 | 27.55757 | 33.73445 | 10884 ft | 316 kts | 352° |
| 2026-04-26 07:53 | 27.58002 | 33.73300 | 11372 ft | 328 kts | 352° |
| 2026-04-26 07:53 | 27.60318 | 33.73115 | 11869 ft | 339 kts | 349° |
| 2026-04-26 07:53 | 27.62703 | 33.72805 | 12376 ft | 351 kts | 347° |
| 2026-04-26 07:54 | 27.65161 | 33.72413 | 12899 ft | 362 kts | 346° |
| 2026-04-26 07:54 | 27.67700 | 33.71977 | 13423 ft | 374 kts | 345° |
| 2026-04-26 07:54 | 27.70315 | 33.71527 | 13931 ft | 386 kts | 345° |
| 2026-04-26 07:54 | 27.73004 | 33.71077 | 14388 ft | 397 kts | 346° |
| 2026-04-26 07:55 | 27.75777 | 33.70631 | 14874 ft | 405 kts | 346° |
| 2026-04-26 07:55 | 27.78583 | 33.70192 | 15355 ft | 411 kts | 347° |
| 2026-04-26 07:55 | 27.81438 | 33.69753 | 15849 ft | 415 kts | 347° |
| 2026-04-26 07:55 | 27.83343 | 33.69462 | 16180 ft | 418 kts | 347° |
| 2026-04-26 07:56 | 27.86244 | 33.69020 | 16681 ft | 423 kts | 347° |
| 2026-04-26 07:56 | 27.89177 | 33.68574 | 17198 ft | 427 kts | 347° |
| 2026-04-26 07:56 | 27.92132 | 33.68120 | 17724 ft | 431 kts | 347° |
| 2026-04-26 07:56 | 27.95123 | 33.67655 | 18249 ft | 435 kts | 347° |
| 2026-04-26 07:57 | 27.98138 | 33.67183 | 18716 ft | 439 kts | 347° |
| 2026-04-26 07:57 | 28.01133 | 33.66712 | 19176 ft | 442 kts | 347° |
| 2026-04-26 07:57 | 28.04228 | 33.66224 | 19654 ft | 445 kts | 347° |
| 2026-04-26 07:57 | 28.07310 | 33.65740 | 20139 ft | 448 kts | 347° |
| 2026-04-26 07:58 | 28.10372 | 33.65262 | 20622 ft | 452 kts | 347° |
| 2026-04-26 07:58 | 28.13521 | 33.64773 | 21130 ft | 455 kts | 347° |
| 2026-04-26 07:58 | 28.16689 | 33.64279 | 21643 ft | 458 kts | 347° |
| 2026-04-26 07:58 | 28.19776 | 33.63520 | 22155 ft | 453 kts | 336° |
| 2026-04-26 07:59 | 28.22641 | 33.62118 | 22677 ft | 447 kts | 325° |
| 2026-04-26 07:59 | 28.25192 | 33.60140 | 23212 ft | 441 kts | 315° |
| 2026-04-26 07:59 | 28.27548 | 33.57876 | 23720 ft | 442 kts | 314° |
| 2026-04-26 07:59 | 28.29876 | 33.55640 | 24169 ft | 443 kts | 314° |
| 2026-04-26 08:00 | 28.32239 | 33.53377 | 24637 ft | 445 kts | 314° |
| 2026-04-26 08:00 | 28.34588 | 33.51132 | 25097 ft | 444 kts | 314° |
| 2026-04-26 08:00 | 28.36958 | 33.48868 | 25576 ft | 444 kts | 314° |
| 2026-04-26 08:00 | 28.39311 | 33.46617 | 26061 ft | 442 kts | 313° |
| 2026-04-26 08:01 | 28.41653 | 33.44367 | 26557 ft | 441 kts | 313° |
| 2026-04-26 08:01 | 28.43985 | 33.42120 | 27065 ft | 439 kts | 313° |
| 2026-04-26 08:01 | 28.46307 | 33.39884 | 27577 ft | 437 kts | 313° |
| 2026-04-26 08:01 | 28.48630 | 33.37651 | 28105 ft | 435 kts | 313° |
| 2026-04-26 08:02 | 28.50950 | 33.35422 | 28439 ft | 438 kts | 312° |
| 2026-04-26 08:02 | 28.53282 | 33.33180 | 28710 ft | 440 kts | 312° |
| 2026-04-26 08:02 | 28.55619 | 33.30926 | 28984 ft | 441 kts | 312° |
| 2026-04-26 08:02 | 28.57965 | 33.28661 | 29266 ft | 442 kts | 312° |
| 2026-04-26 08:03 | 28.60313 | 33.26396 | 29545 ft | 443 kts | 312° |
| 2026-04-26 08:03 | 28.62664 | 33.24130 | 29829 ft | 442 kts | 312° |
| 2026-04-26 08:03 | 28.65012 | 33.21863 | 30096 ft | 442 kts | 311° |
| 2026-04-26 08:03 | 28.67349 | 33.19604 | 30329 ft | 441 kts | 311° |
| 2026-04-26 08:04 | 28.69695 | 33.17333 | 30564 ft | 440 kts | 311° |
| 2026-04-26 08:04 | 28.72027 | 33.15076 | 30800 ft | 439 kts | 311° |
| 2026-04-26 08:04 | 28.74364 | 33.12815 | 31045 ft | 438 kts | 311° |
| 2026-04-26 08:04 | 28.76683 | 33.10570 | 31294 ft | 437 kts | 310° |
| 2026-04-26 08:05 | 28.78994 | 33.08329 | 31534 ft | 436 kts | 310° |
| 2026-04-26 08:05 | 28.81299 | 33.06091 | 31790 ft | 435 kts | 310° |
| 2026-04-26 08:05 | 28.83598 | 33.03861 | 32035 ft | 433 kts | 310° |
| 2026-04-26 08:05 | 28.85898 | 33.01631 | 32283 ft | 432 kts | 310° |
| 2026-04-26 08:06 | 28.88179 | 32.99418 | 32544 ft | 431 kts | 310° |
| 2026-04-26 08:06 | 28.90458 | 32.97205 | 32805 ft | 429 kts | 309° |
| 2026-04-26 08:06 | 28.92730 | 32.94997 | 33062 ft | 428 kts | 309° |
| 2026-04-26 08:06 | 28.94964 | 32.92822 | 33323 ft | 427 kts | 309° |
| 2026-04-26 08:07 | 28.97213 | 32.90630 | 33587 ft | 425 kts | 309° |
| 2026-04-26 08:07 | 28.99461 | 32.88437 | 33853 ft | 424 kts | 309° |
| 2026-04-26 08:07 | 29.01700 | 32.86258 | 34095 ft | 422 kts | 309° |
| 2026-04-26 08:07 | 29.03935 | 32.84077 | 34320 ft | 421 kts | 309° |
| 2026-04-26 08:08 | 29.06165 | 32.81897 | 34556 ft | 420 kts | 309° |
| 2026-04-26 08:08 | 29.08408 | 32.79709 | 34788 ft | 419 kts | 309° |
| 2026-04-26 08:08 | 29.10587 | 32.77579 | 35015 ft | 419 kts | 309° |
| 2026-04-26 08:08 | 29.12810 | 32.75399 | 35247 ft | 418 kts | 309° |
| 2026-04-26 08:09 | 29.15007 | 32.73243 | 35484 ft | 417 kts | 309° |
| 2026-04-26 08:09 | 29.17234 | 32.71063 | 35723 ft | 417 kts | 309° |
| 2026-04-26 08:09 | 29.19430 | 32.68918 | 35927 ft | 417 kts | 309° |
| 2026-04-26 08:09 | 29.21647 | 32.66746 | 35994 ft | 419 kts | 309° |
| 2026-04-26 08:10 | 29.26064 | 32.62400 | 35998 ft | 421 kts | 309° |
| 2026-04-26 08:10 | 29.30071 | 32.57657 | 35998 ft | 407 kts | 299° |
| 2026-04-26 08:11 | 29.33564 | 32.52557 | 35997 ft | 408 kts | 299° |
| 2026-04-26 08:11 | 29.37065 | 32.47454 | 36004 ft | 408 kts | 299° |
| 2026-04-26 08:12 | 29.40599 | 32.42306 | 36012 ft | 408 kts | 299° |
| 2026-04-26 08:12 | 29.44013 | 32.37325 | 36020 ft | 408 kts | 299° |
| 2026-04-26 08:13 | 29.47511 | 32.32206 | 36028 ft | 409 kts | 299° |
| 2026-04-26 08:13 | 29.51013 | 32.27084 | 36030 ft | 409 kts | 299° |
| 2026-04-26 08:14 | 29.54520 | 32.21940 | 36037 ft | 408 kts | 300° |
| 2026-04-26 08:14 | 29.58010 | 32.16806 | 36045 ft | 409 kts | 299° |
| 2026-04-26 08:15 | 29.61518 | 32.11648 | 36046 ft | 409 kts | 299° |
| 2026-04-26 08:15 | 29.65016 | 32.06504 | 36045 ft | 409 kts | 299° |
| 2026-04-26 08:16 | 29.68535 | 32.01319 | 36047 ft | 409 kts | 299° |
| 2026-04-26 08:16 | 29.72014 | 31.96176 | 36046 ft | 409 kts | 299° |
| 2026-04-26 08:17 | 29.75518 | 31.91003 | 36039 ft | 409 kts | 299° |
| 2026-04-26 08:17 | 29.79007 | 31.85837 | 36048 ft | 409 kts | 299° |
| 2026-04-26 08:18 | 29.82423 | 31.80605 | 36052 ft | 408 kts | 298° |
| 2026-04-26 08:18 | 29.85786 | 31.75345 | 36057 ft | 408 kts | 298° |
| 2026-04-26 08:19 | 29.89165 | 31.70081 | 36059 ft | 408 kts | 298° |
| 2026-04-26 08:19 | 29.92547 | 31.64838 | 36059 ft | 408 kts | 298° |
| 2026-04-26 08:20 | 29.95912 | 31.59609 | 36040 ft | 407 kts | 298° |
| 2026-04-26 08:20 | 29.99293 | 31.54350 | 36037 ft | 407 kts | 298° |
| 2026-04-26 08:21 | 30.02672 | 31.49086 | 36041 ft | 407 kts | 298° |
| 2026-04-26 08:21 | 30.05890 | 31.44059 | 36034 ft | 407 kts | 298° |
| 2026-04-26 08:22 | 30.07767 | 31.41563 | 36032 ft | 419 kts | 308° |
| 2026-04-26 08:22 | 30.10163 | 31.39550 | 36033 ft | 436 kts | 321° |
| 2026-04-26 08:22 | 30.13034 | 31.38203 | 36030 ft | 458 kts | 334° |
| 2026-04-26 08:22 | 30.16222 | 31.37536 | 36037 ft | 468 kts | 339° |
| 2026-04-26 08:23 | 30.22671 | 31.36378 | 36034 ft | 469 kts | 339° |
| 2026-04-26 08:23 | 30.29119 | 31.35208 | 36033 ft | 469 kts | 339° |
| 2026-04-26 08:24 | 30.35568 | 31.34029 | 36033 ft | 469 kts | 339° |
| 2026-04-26 08:24 | 30.42026 | 31.32843 | 36029 ft | 470 kts | 339° |
| 2026-04-26 08:25 | 30.48476 | 31.31653 | 36028 ft | 470 kts | 339° |
| 2026-04-26 08:25 | 30.54941 | 31.30461 | 36026 ft | 470 kts | 340° |
| 2026-04-26 08:26 | 30.61402 | 31.29274 | 36028 ft | 470 kts | 340° |
| 2026-04-26 08:26 | 30.67865 | 31.28090 | 36024 ft | 470 kts | 340° |
| 2026-04-26 08:27 | 30.74287 | 31.26908 | 36024 ft | 470 kts | 340° |
| 2026-04-26 08:27 | 30.80773 | 31.25705 | 36027 ft | 470 kts | 340° |
| 2026-04-26 08:28 | 30.87207 | 31.24509 | 36024 ft | 470 kts | 340° |
| 2026-04-26 08:28 | 30.93676 | 31.23308 | 36023 ft | 470 kts | 340° |
| 2026-04-26 08:29 | 31.00129 | 31.22111 | 36022 ft | 470 kts | 340° |
| 2026-04-26 08:29 | 31.06627 | 31.20904 | 36023 ft | 471 kts | 340° |
| 2026-04-26 08:30 | 31.13084 | 31.19701 | 36013 ft | 471 kts | 340° |
| 2026-04-26 08:30 | 31.19556 | 31.18494 | 36017 ft | 471 kts | 341° |
| 2026-04-26 08:31 | 31.26008 | 31.17291 | 36016 ft | 471 kts | 341° |
| 2026-04-26 08:31 | 31.32475 | 31.16082 | 36018 ft | 472 kts | 341° |
| 2026-04-26 08:32 | 31.38990 | 31.14862 | 36022 ft | 472 kts | 341° |
| 2026-04-26 08:32 | 31.45464 | 31.13647 | 36024 ft | 472 kts | 341° |
| 2026-04-26 08:33 | 31.51940 | 31.12432 | 36028 ft | 473 kts | 341° |
| 2026-04-26 08:33 | 31.58535 | 31.11460 | 36023 ft | 478 kts | 345° |
| 2026-04-26 08:34 | 31.65186 | 31.10829 | 36024 ft | 481 kts | 346° |
| 2026-04-26 08:34 | 31.71846 | 31.10227 | 36029 ft | 480 kts | 346° |
| 2026-04-26 08:35 | 31.78486 | 31.09542 | 36030 ft | 480 kts | 345° |
| 2026-04-26 08:35 | 31.85181 | 31.08800 | 36023 ft | 480 kts | 346° |
| 2026-04-26 08:36 | 31.91821 | 31.08075 | 36026 ft | 481 kts | 346° |
| 2026-04-26 08:36 | 31.98488 | 31.07355 | 36026 ft | 481 kts | 346° |
| 2026-04-26 08:37 | 32.05127 | 31.06641 | 36023 ft | 482 kts | 346° |
| 2026-04-26 08:37 | 32.11806 | 31.05913 | 36026 ft | 482 kts | 346° |
| 2026-04-26 08:38 | 32.18485 | 31.05168 | 36027 ft | 482 kts | 346° |
| 2026-04-26 08:38 | 32.25177 | 31.04426 | 36023 ft | 482 kts | 347° |
| 2026-04-26 08:39 | 32.30734 | 31.03812 | 36023 ft | 483 kts | 347° |
| 2026-04-26 08:39 | 32.37412 | 31.03081 | 36022 ft | 483 kts | 347° |
| 2026-04-26 08:40 | 32.44138 | 31.02338 | 36019 ft | 483 kts | 347° |
| 2026-04-26 08:40 | 32.50790 | 31.01604 | 36014 ft | 483 kts | 347° |
| 2026-04-26 08:41 | 32.57508 | 31.00865 | 36014 ft | 483 kts | 347° |
| 2026-04-26 08:41 | 32.64157 | 31.00121 | 36015 ft | 483 kts | 347° |
| 2026-04-26 08:42 | 32.70851 | 30.99373 | 36010 ft | 483 kts | 347° |
| 2026-04-26 08:42 | 32.77554 | 30.98634 | 36010 ft | 483 kts | 348° |
| 2026-04-26 08:43 | 32.84230 | 30.97891 | 36007 ft | 483 kts | 348° |
| 2026-04-26 08:43 | 32.90921 | 30.97137 | 36004 ft | 483 kts | 348° |
| 2026-04-26 08:44 | 32.97631 | 30.96383 | 36004 ft | 483 kts | 348° |
| 2026-04-26 08:44 | 33.04334 | 30.95622 | 35985 ft | 484 kts | 348° |
| 2026-04-26 08:45 | 33.11043 | 30.94894 | 35995 ft | 485 kts | 350° |
| 2026-04-26 08:45 | 33.17783 | 30.94525 | 35997 ft | 487 kts | 353° |
| 2026-04-26 08:46 | 33.24594 | 30.94402 | 35994 ft | 488 kts | 353° |
| 2026-04-26 08:46 | 33.31336 | 30.94236 | 35995 ft | 488 kts | 353° |
| 2026-04-26 08:47 | 33.38132 | 30.93973 | 36003 ft | 487 kts | 353° |
| 2026-04-26 08:47 | 33.44886 | 30.93693 | 36000 ft | 487 kts | 353° |
| 2026-04-26 08:48 | 33.51680 | 30.93431 | 35999 ft | 487 kts | 353° |
| 2026-04-26 08:48 | 33.58442 | 30.93176 | 35999 ft | 486 kts | 353° |
| 2026-04-26 08:49 | 33.65182 | 30.92926 | 35993 ft | 486 kts | 353° |
| 2026-04-26 08:49 | 33.71960 | 30.92668 | 35997 ft | 486 kts | 353° |
| 2026-04-26 08:50 | 33.78703 | 30.92411 | 35995 ft | 486 kts | 354° |
| 2026-04-26 08:50 | 33.85478 | 30.92156 | 35989 ft | 486 kts | 354° |
| 2026-04-26 08:51 | 33.95623 | 30.91771 | 35989 ft | 486 kts | 354° |
| 2026-04-26 08:52 | 34.02403 | 30.91445 | 35986 ft | 486 kts | 353° |
| 2026-04-26 08:52 | 34.09155 | 30.91031 | 35989 ft | 486 kts | 353° |
| 2026-04-26 08:53 | 34.15877 | 30.90619 | 35984 ft | 486 kts | 353° |
| 2026-04-26 08:53 | 34.22646 | 30.90242 | 35983 ft | 486 kts | 354° |
| 2026-04-26 08:54 | 34.29424 | 30.89889 | 35977 ft | 486 kts | 354° |
| 2026-04-26 08:54 | 34.36184 | 30.89575 | 35976 ft | 486 kts | 354° |
| 2026-04-26 08:55 | 34.42938 | 30.89264 | 35973 ft | 486 kts | 354° |
| 2026-04-26 08:55 | 34.49650 | 30.88937 | 35982 ft | 486 kts | 354° |
| 2026-04-26 08:56 | 34.56413 | 30.88595 | 35977 ft | 486 kts | 354° |
| 2026-04-26 08:56 | 34.63192 | 30.88258 | 35982 ft | 486 kts | 355° |
| 2026-04-26 08:57 | 34.69948 | 30.88017 | 35977 ft | 487 kts | 355° |
| 2026-04-26 08:57 | 34.76742 | 30.87826 | 35977 ft | 486 kts | 356° |
| 2026-04-26 08:58 | 34.83478 | 30.87619 | 35977 ft | 486 kts | 355° |
| 2026-04-26 08:58 | 34.90233 | 30.87398 | 35970 ft | 486 kts | 356° |
| 2026-04-26 08:59 | 34.97017 | 30.87169 | 35971 ft | 485 kts | 356° |
| 2026-04-26 08:59 | 35.03751 | 30.86941 | 35972 ft | 485 kts | 356° |
| 2026-04-26 09:00 | 35.10493 | 30.86723 | 35979 ft | 485 kts | 356° |
| 2026-04-26 09:00 | 35.17217 | 30.86500 | 35978 ft | 485 kts | 356° |
| 2026-04-26 09:01 | 35.23989 | 30.86272 | 35982 ft | 485 kts | 356° |
| 2026-04-26 09:01 | 35.30726 | 30.86050 | 35979 ft | 484 kts | 356° |
| 2026-04-26 09:02 | 35.37470 | 30.85827 | 35981 ft | 484 kts | 356° |
| 2026-04-26 09:02 | 35.44219 | 30.85602 | 35980 ft | 484 kts | 356° |
| 2026-04-26 09:03 | 35.50937 | 30.85380 | 35981 ft | 483 kts | 356° |
| 2026-04-26 09:03 | 35.57629 | 30.85156 | 35979 ft | 483 kts | 356° |
| 2026-04-26 09:04 | 35.64367 | 30.84899 | 35981 ft | 483 kts | 356° |
| 2026-04-26 09:04 | 35.71066 | 30.84498 | 35981 ft | 482 kts | 355° |
| 2026-04-26 09:05 | 35.77755 | 30.84036 | 35982 ft | 482 kts | 355° |
| 2026-04-26 09:05 | 35.84430 | 30.83610 | 35977 ft | 482 kts | 356° |
| 2026-04-26 09:06 | 35.91154 | 30.83215 | 35975 ft | 481 kts | 356° |
| 2026-04-26 09:06 | 35.97830 | 30.82827 | 35977 ft | 481 kts | 356° |
| 2026-04-26 09:07 | 36.04525 | 30.82429 | 35980 ft | 481 kts | 356° |
| 2026-04-26 09:07 | 36.11208 | 30.82129 | 35980 ft | 481 kts | 358° |
| 2026-04-26 09:08 | 36.17836 | 30.81613 | 35979 ft | 479 kts | 347° |
| 2026-04-26 09:08 | 36.24359 | 30.79962 | 35981 ft | 479 kts | 347° |
| 2026-04-26 09:09 | 36.30880 | 30.78280 | 35980 ft | 478 kts | 347° |
| 2026-04-26 09:09 | 36.37391 | 30.76590 | 35981 ft | 478 kts | 347° |
| 2026-04-26 09:10 | 36.43897 | 30.74911 | 35983 ft | 477 kts | 348° |
| 2026-04-26 09:10 | 36.50401 | 30.73243 | 35982 ft | 477 kts | 348° |
| 2026-04-26 09:11 | 36.56917 | 30.71558 | 35980 ft | 477 kts | 348° |
| 2026-04-26 09:11 | 36.63417 | 30.69860 | 35976 ft | 477 kts | 348° |
| 2026-04-26 09:12 | 36.69907 | 30.68169 | 35972 ft | 476 kts | 348° |
| 2026-04-26 09:12 | 36.76349 | 30.66497 | 35971 ft | 476 kts | 348° |
| 2026-04-26 09:13 | 36.82825 | 30.64808 | 35971 ft | 475 kts | 348° |
| 2026-04-26 09:13 | 36.89294 | 30.63129 | 35971 ft | 474 kts | 348° |
| 2026-04-26 09:14 | 36.95764 | 30.61438 | 35974 ft | 473 kts | 348° |
| 2026-04-26 09:14 | 37.02184 | 30.59756 | 35978 ft | 472 kts | 348° |
| 2026-04-26 09:15 | 37.08597 | 30.58070 | 35983 ft | 472 kts | 349° |
| 2026-04-26 09:15 | 37.15040 | 30.56375 | 35995 ft | 471 kts | 348° |
| 2026-04-26 09:16 | 37.21426 | 30.54697 | 36003 ft | 471 kts | 349° |
| 2026-04-26 09:16 | 37.27825 | 30.53014 | 36010 ft | 470 kts | 349° |
| 2026-04-26 09:17 | 37.34256 | 30.51318 | 36019 ft | 470 kts | 349° |
| 2026-04-26 09:17 | 37.40638 | 30.49623 | 36027 ft | 470 kts | 349° |
| 2026-04-26 09:18 | 37.47053 | 30.47915 | 36037 ft | 470 kts | 349° |
| 2026-04-26 09:18 | 37.53450 | 30.46215 | 36051 ft | 470 kts | 349° |
| 2026-04-26 09:19 | 37.59834 | 30.44522 | 36063 ft | 470 kts | 349° |
| 2026-04-26 09:19 | 37.66247 | 30.42820 | 36071 ft | 469 kts | 349° |
| 2026-04-26 09:20 | 37.72616 | 30.41114 | 36078 ft | 469 kts | 348° |
| 2026-04-26 09:20 | 37.78988 | 30.39402 | 36076 ft | 468 kts | 348° |
| 2026-04-26 09:21 | 37.85349 | 30.37699 | 36075 ft | 467 kts | 348° |
| 2026-04-26 09:21 | 37.91743 | 30.35979 | 36072 ft | 467 kts | 348° |
| 2026-04-26 09:22 | 37.98075 | 30.34277 | 36077 ft | 467 kts | 348° |
| 2026-04-26 09:22 | 38.04441 | 30.32558 | 36079 ft | 467 kts | 348° |
| 2026-04-26 09:23 | 38.10800 | 30.30847 | 36082 ft | 467 kts | 348° |
| 2026-04-26 09:23 | 38.17148 | 30.29139 | 36082 ft | 467 kts | 348° |
| 2026-04-26 09:24 | 38.23488 | 30.27422 | 36077 ft | 466 kts | 348° |
| 2026-04-26 09:24 | 38.28802 | 30.25973 | 36082 ft | 466 kts | 348° |
| 2026-04-26 09:25 | 38.35119 | 30.24254 | 36083 ft | 465 kts | 348° |
| 2026-04-26 09:25 | 38.41465 | 30.22526 | 36081 ft | 465 kts | 348° |
| 2026-04-26 09:26 | 38.47780 | 30.20811 | 36083 ft | 465 kts | 348° |
| 2026-04-26 09:26 | 38.54081 | 30.19089 | 36082 ft | 464 kts | 348° |
| 2026-04-26 09:27 | 38.60394 | 30.17358 | 36077 ft | 463 kts | 348° |
| 2026-04-26 09:27 | 38.66697 | 30.15628 | 36078 ft | 463 kts | 348° |
| 2026-04-26 09:28 | 38.72994 | 30.13896 | 36077 ft | 462 kts | 348° |
| 2026-04-26 09:28 | 38.79284 | 30.12167 | 36076 ft | 462 kts | 349° |
| 2026-04-26 09:29 | 38.85556 | 30.10443 | 36075 ft | 461 kts | 349° |
| 2026-04-26 09:29 | 38.91836 | 30.08707 | 36073 ft | 460 kts | 349° |
| 2026-04-26 09:30 | 38.98096 | 30.06973 | 36072 ft | 460 kts | 349° |
| 2026-04-26 09:30 | 39.04342 | 30.05242 | 36071 ft | 459 kts | 349° |
| 2026-04-26 09:31 | 39.10583 | 30.03508 | 36071 ft | 458 kts | 349° |
| 2026-04-26 09:31 | 39.16821 | 30.01768 | 36065 ft | 457 kts | 349° |
| 2026-04-26 09:32 | 39.22997 | 30.00050 | 36063 ft | 456 kts | 349° |
| 2026-04-26 09:32 | 39.29201 | 29.98325 | 36058 ft | 456 kts | 348° |
| 2026-04-26 09:33 | 39.35440 | 29.96581 | 36056 ft | 455 kts | 348° |
| 2026-04-26 09:33 | 39.41589 | 29.94861 | 36052 ft | 455 kts | 349° |
| 2026-04-26 09:34 | 39.47784 | 29.93119 | 36047 ft | 455 kts | 348° |
| 2026-04-26 09:34 | 39.53969 | 29.91381 | 36049 ft | 455 kts | 348° |
| 2026-04-26 09:35 | 39.60158 | 29.89633 | 36052 ft | 455 kts | 348° |
| 2026-04-26 09:35 | 39.66333 | 29.87886 | 36044 ft | 454 kts | 348° |
| 2026-04-26 09:36 | 39.72475 | 29.86155 | 36041 ft | 454 kts | 348° |
| 2026-04-26 09:36 | 39.78647 | 29.84403 | 36043 ft | 454 kts | 348° |
| 2026-04-26 09:37 | 39.84825 | 29.82655 | 36039 ft | 454 kts | 348° |
| 2026-04-26 09:37 | 39.91015 | 29.80894 | 36043 ft | 454 kts | 348° |
| 2026-04-26 09:38 | 39.97165 | 29.79139 | 36038 ft | 454 kts | 348° |
| 2026-04-26 09:38 | 40.03369 | 29.77365 | 36035 ft | 454 kts | 348° |
| 2026-04-26 09:39 | 40.09527 | 29.75604 | 36026 ft | 454 kts | 348° |
| 2026-04-26 09:39 | 40.15713 | 29.73833 | 36026 ft | 453 kts | 348° |
| 2026-04-26 09:40 | 40.21831 | 29.72083 | 36020 ft | 453 kts | 348° |
| 2026-04-26 09:40 | 40.28021 | 29.70313 | 36020 ft | 453 kts | 348° |
| 2026-04-26 09:41 | 40.34159 | 29.68540 | 36025 ft | 452 kts | 348° |
| 2026-04-26 09:41 | 40.40285 | 29.66764 | 36027 ft | 452 kts | 348° |
| 2026-04-26 09:42 | 40.46450 | 29.64977 | 36026 ft | 452 kts | 348° |
| 2026-04-26 09:42 | 40.51549 | 29.63504 | 36028 ft | 452 kts | 348° |
| 2026-04-26 09:43 | 40.57403 | 29.61789 | 36032 ft | 452 kts | 347° |
| 2026-04-26 09:44 | 40.63534 | 29.60017 | 36040 ft | 452 kts | 348° |
| 2026-04-26 09:44 | 40.69670 | 29.58244 | 36038 ft | 451 kts | 347° |
| 2026-04-26 09:45 | 40.75801 | 29.56450 | 36041 ft | 451 kts | 347° |
| 2026-04-26 09:45 | 40.81947 | 29.54647 | 36040 ft | 450 kts | 347° |
| 2026-04-26 09:46 | 40.88027 | 29.52865 | 36042 ft | 450 kts | 347° |
| 2026-04-26 09:46 | 40.94150 | 29.51078 | 36042 ft | 450 kts | 347° |
| 2026-04-26 09:47 | 41.00247 | 29.49284 | 36042 ft | 449 kts | 347° |
| 2026-04-26 09:47 | 41.06342 | 29.47481 | 36036 ft | 449 kts | 347° |
| 2026-04-26 09:48 | 41.12475 | 29.45666 | 36032 ft | 449 kts | 347° |
| 2026-04-26 09:48 | 41.18574 | 29.43870 | 36030 ft | 448 kts | 347° |
| 2026-04-26 09:49 | 41.24633 | 29.42085 | 36020 ft | 448 kts | 347° |
| 2026-04-26 09:49 | 41.30486 | 29.40348 | 36021 ft | 448 kts | 347° |
| 2026-04-26 09:50 | 41.36559 | 29.38542 | 36023 ft | 448 kts | 346° |
| 2026-04-26 09:50 | 41.42666 | 29.36726 | 36020 ft | 448 kts | 346° |
| 2026-04-26 09:51 | 41.48728 | 29.34912 | 36025 ft | 447 kts | 346° |
| 2026-04-26 09:51 | 41.54772 | 29.33102 | 36025 ft | 447 kts | 346° |
| 2026-04-26 09:52 | 41.60872 | 29.31278 | 36021 ft | 447 kts | 346° |
| 2026-04-26 09:52 | 41.69987 | 29.28536 | 36024 ft | 447 kts | 346° |
| 2026-04-26 09:53 | 41.76032 | 29.26714 | 36022 ft | 447 kts | 346° |
| 2026-04-26 09:53 | 41.82114 | 29.24881 | 36018 ft | 447 kts | 346° |
| 2026-04-26 09:54 | 41.88199 | 29.23041 | 36023 ft | 447 kts | 346° |
| 2026-04-26 09:54 | 41.94279 | 29.21221 | 36020 ft | 448 kts | 346° |
| 2026-04-26 09:55 | 42.00351 | 29.19388 | 36018 ft | 448 kts | 345° |
| 2026-04-26 09:55 | 42.06389 | 29.17549 | 36021 ft | 448 kts | 345° |
| 2026-04-26 09:56 | 42.12509 | 29.15675 | 36021 ft | 448 kts | 345° |
| 2026-04-26 09:56 | 42.18588 | 29.13775 | 36017 ft | 448 kts | 343° |
| 2026-04-26 09:57 | 42.24575 | 29.11465 | 36019 ft | 447 kts | 341° |
| 2026-04-26 09:57 | 42.30471 | 29.08962 | 36018 ft | 447 kts | 340° |
| 2026-04-26 09:58 | 42.36420 | 29.06497 | 36018 ft | 447 kts | 341° |
| 2026-04-26 09:58 | 42.42385 | 29.04101 | 36022 ft | 447 kts | 341° |
| 2026-04-26 09:59 | 42.47349 | 29.02108 | 36018 ft | 447 kts | 341° |
| 2026-04-26 09:59 | 42.54327 | 28.99298 | 36020 ft | 447 kts | 341° |
| 2026-04-26 10:00 | 42.60302 | 28.96891 | 36016 ft | 448 kts | 341° |
| 2026-04-26 10:00 | 42.66268 | 28.94473 | 36014 ft | 448 kts | 340° |
| 2026-04-26 10:01 | 42.72239 | 28.92039 | 36013 ft | 447 kts | 340° |
| 2026-04-26 10:01 | 42.78195 | 28.89615 | 36010 ft | 447 kts | 340° |
| 2026-04-26 10:02 | 42.84158 | 28.87185 | 36009 ft | 447 kts | 340° |
| 2026-04-26 10:02 | 42.90098 | 28.84755 | 36000 ft | 447 kts | 340° |
| 2026-04-26 10:03 | 42.96051 | 28.82307 | 36000 ft | 447 kts | 340° |
| 2026-04-26 10:03 | 43.02024 | 28.79850 | 35991 ft | 447 kts | 340° |
| 2026-04-26 10:04 | 43.07983 | 28.77405 | 35994 ft | 447 kts | 340° |
| 2026-04-26 10:04 | 43.13908 | 28.74965 | 35995 ft | 447 kts | 340° |
| 2026-04-26 10:05 | 43.19875 | 28.72506 | 35990 ft | 446 kts | 340° |
| 2026-04-26 10:05 | 43.25802 | 28.70068 | 35984 ft | 446 kts | 340° |
| 2026-04-26 10:06 | 43.31737 | 28.67603 | 35981 ft | 445 kts | 340° |
| 2026-04-26 10:06 | 43.37648 | 28.65126 | 35976 ft | 445 kts | 340° |
| 2026-04-26 10:07 | 43.43581 | 28.62649 | 35974 ft | 445 kts | 340° |
| 2026-04-26 10:07 | 43.49513 | 28.60183 | 35968 ft | 445 kts | 340° |
| 2026-04-26 10:08 | 43.54430 | 28.58136 | 35971 ft | 445 kts | 339° |
| 2026-04-26 10:08 | 43.60386 | 28.55639 | 35963 ft | 444 kts | 339° |
| 2026-04-26 10:09 | 43.66270 | 28.53166 | 35958 ft | 444 kts | 339° |
| 2026-04-26 10:09 | 43.72185 | 28.50686 | 35951 ft | 444 kts | 339° |
| 2026-04-26 10:10 | 43.78075 | 28.48137 | 35942 ft | 443 kts | 338° |
| 2026-04-26 10:10 | 43.83930 | 28.45470 | 35938 ft | 442 kts | 338° |
| 2026-04-26 10:11 | 43.89772 | 28.42787 | 35934 ft | 442 kts | 338° |
| 2026-04-26 10:11 | 43.95620 | 28.40121 | 35930 ft | 443 kts | 338° |
| 2026-04-26 10:12 | 44.01482 | 28.37470 | 35920 ft | 443 kts | 338° |
| 2026-04-26 10:12 | 44.06742 | 28.35087 | 35910 ft | 443 kts | 338° |
| 2026-04-26 10:13 | 44.12602 | 28.32420 | 35906 ft | 443 kts | 338° |
| 2026-04-26 10:13 | 44.18463 | 28.29746 | 35896 ft | 443 kts | 338° |
| 2026-04-26 10:14 | 44.24285 | 28.27080 | 35897 ft | 443 kts | 338° |
| 2026-04-26 10:14 | 44.30120 | 28.24407 | 35898 ft | 442 kts | 338° |
| 2026-04-26 10:15 | 44.35972 | 28.21719 | 35897 ft | 442 kts | 338° |
| 2026-04-26 10:15 | 44.41801 | 28.19018 | 35898 ft | 442 kts | 338° |
| 2026-04-26 10:16 | 44.47638 | 28.16322 | 35899 ft | 441 kts | 338° |
| 2026-04-26 10:16 | 44.53483 | 28.13612 | 35901 ft | 441 kts | 338° |
| 2026-04-26 10:17 | 44.59300 | 28.10917 | 35900 ft | 441 kts | 338° |
| 2026-04-26 10:17 | 44.65124 | 28.08218 | 35895 ft | 441 kts | 338° |
| 2026-04-26 10:18 | 44.70962 | 28.05499 | 35893 ft | 441 kts | 338° |
| 2026-04-26 10:18 | 44.76781 | 28.02782 | 35893 ft | 441 kts | 338° |
| 2026-04-26 10:19 | 44.82559 | 28.00078 | 35889 ft | 441 kts | 338° |
| 2026-04-26 10:19 | 44.88418 | 27.97330 | 35883 ft | 441 kts | 338° |
| 2026-04-26 10:20 | 44.94202 | 27.94622 | 35886 ft | 441 kts | 338° |
| 2026-04-26 10:20 | 45.00027 | 27.91887 | 35879 ft | 441 kts | 339° |
| 2026-04-26 10:21 | 45.05847 | 27.89141 | 35877 ft | 441 kts | 339° |
| 2026-04-26 10:21 | 45.11658 | 27.86398 | 35876 ft | 440 kts | 339° |
| 2026-04-26 10:22 | 45.17478 | 27.83639 | 35871 ft | 440 kts | 339° |
| 2026-04-26 10:22 | 45.23286 | 27.80876 | 35868 ft | 440 kts | 339° |
| 2026-04-26 10:23 | 45.29100 | 27.78121 | 35866 ft | 440 kts | 339° |
| 2026-04-26 10:23 | 45.34900 | 27.75358 | 35861 ft | 440 kts | 339° |
| 2026-04-26 10:24 | 45.40700 | 27.72575 | 35864 ft | 440 kts | 339° |
| 2026-04-26 10:24 | 45.46455 | 27.69815 | 35856 ft | 439 kts | 339° |
| 2026-04-26 10:25 | 45.52256 | 27.67046 | 35853 ft | 439 kts | 339° |
| 2026-04-26 10:25 | 45.58047 | 27.64270 | 35850 ft | 439 kts | 339° |
| 2026-04-26 10:26 | 45.63843 | 27.61477 | 35844 ft | 439 kts | 339° |
| 2026-04-26 10:26 | 45.69625 | 27.58675 | 35842 ft | 439 kts | 339° |
| 2026-04-26 10:27 | 45.75417 | 27.55874 | 35848 ft | 439 kts | 339° |
| 2026-04-26 10:27 | 45.81204 | 27.53070 | 35390 ft | 437 kts | 338° |
| 2026-04-26 10:28 | 45.84055 | 27.51683 | 34912 ft | 431 kts | 338° |
| 2026-04-26 10:28 | 45.86884 | 27.50302 | 34419 ft | 427 kts | 338° |
| 2026-04-26 10:28 | 45.89687 | 27.48935 | 33949 ft | 424 kts | 338° |
| 2026-04-26 10:28 | 45.92471 | 27.47580 | 33423 ft | 422 kts | 338° |
| 2026-04-26 10:29 | 45.95247 | 27.46227 | 32885 ft | 421 kts | 337° |
| 2026-04-26 10:29 | 45.98029 | 27.44875 | 32355 ft | 421 kts | 337° |
| 2026-04-26 10:29 | 46.00789 | 27.43534 | 31838 ft | 415 kts | 337° |
| 2026-04-26 10:29 | 46.03504 | 27.42210 | 31337 ft | 410 kts | 337° |
| 2026-04-26 10:30 | 46.06159 | 27.40909 | 30836 ft | 406 kts | 337° |
| 2026-04-26 10:30 | 46.08822 | 27.39600 | 30343 ft | 403 kts | 336° |
| 2026-04-26 10:30 | 46.11467 | 27.38297 | 29851 ft | 400 kts | 336° |
| 2026-04-26 10:30 | 46.14094 | 27.37005 | 29284 ft | 397 kts | 337° |
| 2026-04-26 10:31 | 46.16734 | 27.35706 | 28723 ft | 394 kts | 336° |
| 2026-04-26 10:31 | 46.19315 | 27.34434 | 28174 ft | 390 kts | 336° |
| 2026-04-26 10:31 | 46.21870 | 27.33173 | 27634 ft | 387 kts | 336° |
| 2026-04-26 10:31 | 46.24409 | 27.31920 | 27106 ft | 384 kts | 336° |
| 2026-04-26 10:32 | 46.26905 | 27.30686 | 26595 ft | 382 kts | 336° |
| 2026-04-26 10:32 | 46.28939 | 27.29678 | 26198 ft | 380 kts | 336° |
| 2026-04-26 10:32 | 46.31434 | 27.28438 | 25696 ft | 378 kts | 336° |
| 2026-04-26 10:32 | 46.33912 | 27.27210 | 25216 ft | 375 kts | 336° |
| 2026-04-26 10:33 | 46.36378 | 27.25983 | 24743 ft | 374 kts | 336° |
| 2026-04-26 10:33 | 46.38839 | 27.24755 | 24276 ft | 373 kts | 336° |
| 2026-04-26 10:33 | 46.41290 | 27.23532 | 23818 ft | 372 kts | 336° |
| 2026-04-26 10:33 | 46.43733 | 27.22315 | 23346 ft | 372 kts | 336° |
| 2026-04-26 10:34 | 46.46182 | 27.21101 | 22818 ft | 371 kts | 336° |
| 2026-04-26 10:34 | 46.48626 | 27.19893 | 22279 ft | 371 kts | 336° |
| 2026-04-26 10:34 | 46.51066 | 27.18682 | 21759 ft | 370 kts | 336° |
| 2026-04-26 10:34 | 46.53500 | 27.17470 | 21234 ft | 370 kts | 336° |
| 2026-04-26 10:35 | 46.55933 | 27.16258 | 20733 ft | 369 kts | 336° |
| 2026-04-26 10:35 | 46.58347 | 27.15052 | 20236 ft | 367 kts | 336° |
| 2026-04-26 10:35 | 46.60765 | 27.13840 | 19741 ft | 366 kts | 336° |
| 2026-04-26 10:35 | 46.63168 | 27.12633 | 19255 ft | 364 kts | 336° |
| 2026-04-26 10:36 | 46.65562 | 27.11428 | 18780 ft | 363 kts | 336° |
| 2026-04-26 10:36 | 46.67942 | 27.10233 | 18308 ft | 361 kts | 336° |
| 2026-04-26 10:36 | 46.70308 | 27.09047 | 17784 ft | 359 kts | 336° |
| 2026-04-26 10:36 | 46.72764 | 27.08298 | 17246 ft | 364 kts | 351° |
| 2026-04-26 10:37 | 46.75310 | 27.08609 | 16689 ft | 373 kts | 8° |
| 2026-04-26 10:37 | 46.77723 | 27.10038 | 16151 ft | 380 kts | 26° |
| 2026-04-26 10:37 | 46.79866 | 27.12212 | 15534 ft | 368 kts | 30° |
| 2026-04-26 10:37 | 46.81907 | 27.14365 | 14938 ft | 356 kts | 30° |
| 2026-04-26 10:38 | 46.83887 | 27.16456 | 14358 ft | 346 kts | 30° |
| 2026-04-26 10:38 | 46.85816 | 27.18489 | 13791 ft | 337 kts | 30° |
| 2026-04-26 10:38 | 46.87697 | 27.20458 | 13231 ft | 328 kts | 30° |
| 2026-04-26 10:38 | 46.89525 | 27.22358 | 12704 ft | 319 kts | 30° |
| 2026-04-26 10:39 | 46.91314 | 27.24213 | 12189 ft | 312 kts | 30° |
| 2026-04-26 10:39 | 46.93073 | 27.26038 | 11674 ft | 305 kts | 30° |
| 2026-04-26 10:39 | 46.94789 | 27.27823 | 11197 ft | 299 kts | 30° |
| 2026-04-26 10:39 | 46.96449 | 27.29556 | 10702 ft | 294 kts | 30° |
| 2026-04-26 10:40 | 46.98058 | 27.31362 | 10221 ft | 293 kts | 39° |
| 2026-04-26 10:40 | 46.99342 | 27.33704 | 9735 ft | 295 kts | 57° |
| 2026-04-26 10:40 | 47.00131 | 27.36466 | 9204 ft | 296 kts | 74° |
| 2026-04-26 10:40 | 47.00416 | 27.39446 | 8691 ft | 294 kts | 84° |
| 2026-04-26 10:41 | 47.00595 | 27.42416 | 8181 ft | 290 kts | 83° |
| 2026-04-26 10:41 | 47.00775 | 27.45335 | 7675 ft | 286 kts | 83° |
| 2026-04-26 10:41 | 47.00954 | 27.48225 | 7175 ft | 284 kts | 83° |
| 2026-04-26 10:41 | 47.01129 | 27.51091 | 6674 ft | 280 kts | 83° |
| 2026-04-26 10:42 | 47.01300 | 27.53917 | 6175 ft | 277 kts | 83° |
| 2026-04-26 10:42 | 47.01414 | 27.55807 | 5833 ft | 275 kts | 83° |
| 2026-04-26 10:42 | 47.01638 | 27.59475 | 5153 ft | 271 kts | 83° |
| 2026-04-26 10:42 | 47.01803 | 27.62213 | 4646 ft | 271 kts | 83° |
| 2026-04-26 10:43 | 47.01970 | 27.64960 | 4118 ft | 268 kts | 83° |
| 2026-04-26 10:43 | 47.02133 | 27.67658 | 3633 ft | 264 kts | 83° |
| 2026-04-26 10:43 | 47.02330 | 27.70271 | 3229 ft | 253 kts | 73° |
| 2026-04-26 10:43 | 47.03193 | 27.72376 | 2779 ft | 237 kts | 33° |
| 2026-04-26 10:44 | 47.04626 | 27.73182 | 2626 ft | 208 kts | 359° |
| 2026-04-26 10:44 | 47.05948 | 27.72786 | 2434 ft | 186 kts | 330° |
| 2026-04-26 10:44 | 47.06986 | 27.71868 | 2297 ft | 167 kts | 327° |
| 2026-04-26 10:44 | 47.07939 | 27.71023 | 2290 ft | 150 kts | 327° |
| 2026-04-26 10:45 | 47.08809 | 27.70254 | 2312 ft | 144 kts | 327° |
| 2026-04-26 10:45 | 47.09660 | 27.69503 | 2308 ft | 142 kts | 327° |
| 2026-04-26 10:45 | 47.10505 | 27.68753 | 2140 ft | 141 kts | 327° |
| 2026-04-26 10:45 | 47.11334 | 27.68016 | 1896 ft | 139 kts | 327° |
| 2026-04-26 10:46 | 47.12166 | 27.67278 | 1685 ft | 139 kts | 327° |
| 2026-04-26 10:46 | 47.12994 | 27.66547 | 1468 ft | 139 kts | 326° |
| 2026-04-26 10:46 | 47.13794 | 27.65842 | 1286 ft | 135 kts | 328° |
| 2026-04-26 10:46 | 47.14586 | 27.65138 | 1055 ft | 132 kts | 329° |
| 2026-04-26 10:47 | 47.15362 | 27.64451 | 845 ft | 129 kts | 328° |
| 2026-04-26 10:47 | 47.16129 | 27.63771 | 636 ft | 128 kts | 328° |
| 2026-04-26 10:47 | 47.16894 | 27.63097 | 436 ft | 128 kts | 328° |
| 2026-04-26 10:47 | 47.17591 | 27.62473 | 380 ft | 89 kts | 329° |
| 2026-04-26 10:48 | 47.17949 | 27.62161 | 391 ft | 42 kts | 329° |
| 2026-04-26 10:48 | 47.18149 | 27.61983 | 400 ft | 33 kts | 329° |
| 2026-04-26 10:48 | 47.18336 | 27.61816 | 409 ft | 30 kts | 328° |
| 2026-04-26 10:48 | 47.18498 | 27.61671 | 415 ft | 27 kts | 328° |
| 2026-04-26 10:49 | 47.18656 | 27.61534 | 423 ft | 26 kts | 329° |
| 2026-04-26 10:49 | 47.18759 | 27.61441 | 427 ft | 25 kts | 328° |
| 2026-04-26 10:49 | 47.18926 | 27.61359 | 430 ft | 16 kts | 345° |
| 2026-04-26 10:49 | 47.18892 | 27.61323 | 434 ft | 15 kts | 150° |
| 2026-04-26 10:50 | 47.18825 | 27.61385 | 430 ft | 19 kts | 148° |
| 2026-04-26 10:50 | 47.18694 | 27.61503 | 424 ft | 25 kts | 150° |
| 2026-04-26 10:50 | 47.18530 | 27.61644 | 411 ft | 30 kts | 149° |
| 2026-04-26 10:50 | 47.18333 | 27.61818 | 408 ft | 36 kts | 148° |
| 2026-04-26 10:51 | 47.18169 | 27.61965 | 400 ft | 20 kts | 148° |
| 2026-04-26 10:51 | 47.17902 | 27.62197 | 388 ft | 17 kts | 167° |
| 2026-04-26 10:51 | 47.17815 | 27.62096 | 388 ft | 18 kts | 244° |
| 2026-04-26 10:52 | 47.17760 | 27.61943 | 392 ft | 13 kts | 224° |
| 2026-04-26 10:52 | 47.17679 | 27.61964 | 392 ft | 8 kts | 154° |
| 2026-04-26 10:52 | 47.17648 | 27.61962 | 392 ft | 5 kts | 214° |
| 2026-04-26 10:52 | 47.17643 | 27.61911 | 392 ft | 6 kts | 275° |
| 2026-04-26 10:53 | 47.17644 | 27.61897 | 392 ft | 0 kts | 275° |